Terminal Aerodrome Forecast
Issued by NWS Brownsville, TX

Home | Current Version | Previous Version | Text Only | Print | Product List | Glossary On
Versions: 1 2 3 4 5 6 7 8 9 10 11 12
000
FTUS44 KBRO 281300 AAA
TAFMFE
TAF AMD
KMFE 281335Z 2814/2912 33011KT P6SM -RA BKN010 OVC027
     FM282100 30010KT P6SM BKN025
     FM290000 34007KT P6SM SCT025
     FM290300 34004KT P6SM SKC=

USA.gov is the U.S. government's official web portal to all federal, state and local government web resources and services.